Time;durP1;ratioP1;P1;durP2;ratioP2;P2;SDS_P1;SDS_P2;PMS_P1;PMS_P2;Temp;Humidity;BMP_temperature;BMP_pressure;BME280_temperature;BME280_humidity;BME280_pressure;Samples;Min_cycle;Max_cycle;Signal;HPM_P1;HPM_P2
2023/04/29 00:02:19;;;;;;;2.33;1.60;;;14.40;99.90;;;;;;7386798;19;20170;-74
2023/04/29 00:04:44;;;;;;;2.28;1.27;;;14.50;99.90;;;;;;7385738;19;20163;-73
2023/04/29 00:07:14;;;;;;;1.50;1.40;;;14.40;99.90;;;;;;7385168;19;20170;-74
2023/04/29 00:09:40;;;;;;;1.40;1.20;;;14.40;99.90;;;;;;7386598;19;20519;-73
2023/04/29 00:12:06;;;;;;;1.40;1.20;;;14.40;99.90;;;;;;7386700;19;20162;-73
2023/04/29 00:14:32;;;;;;;1.40;1.08;;;14.40;99.90;;;;;;7384694;19;20159;-74
2023/04/29 00:16:58;;;;;;;2.30;1.20;;;14.50;99.90;;;;;;7386699;19;20588;-74
2023/04/29 00:19:24;;;;;;;1.50;1.40;;;14.50;99.90;;;;;;7386908;19;20599;-74
2023/04/29 00:21:51;;;;;;;1.80;1.30;;;14.40;99.90;;;;;;7386531;19;20154;-73
2023/04/29 00:24:16;;;;;;;1.92;1.27;;;14.50;99.90;;;;;;7386923;19;20221;-74
2023/04/29 00:26:42;;;;;;;2.63;1.30;;;14.40;99.90;;;;;;7387660;19;20138;-74
2023/04/29 00:29:08;;;;;;;1.20;1.10;;;14.60;99.90;;;;;;7385425;19;20160;-74
2023/04/29 00:31:34;;;;;;;2.30;1.30;;;14.50;99.90;;;;;;7384852;19;20206;-73
2023/04/29 00:33:59;;;;;;;2.53;1.20;;;14.50;99.90;;;;;;7385406;19;20592;-73
2023/04/29 00:36:25;;;;;;;1.67;1.35;;;14.40;99.90;;;;;;7385298;19;20848;-73
2023/04/29 00:38:51;;;;;;;2.08;1.50;;;14.50;99.90;;;;;;7385602;19;20142;-73
2023/04/29 00:41:17;;;;;;;2.00;1.30;;;14.70;99.90;;;;;;7376052;19;20172;-74
2023/04/29 00:43:42;;;;;;;1.58;1.30;;;14.60;99.90;;;;;;7385058;19;20587;-72
2023/04/29 00:46:09;;;;;;;1.88;1.42;;;14.60;99.90;;;;;;7385070;19;20138;-72
2023/04/29 00:48:35;;;;;;;2.20;1.33;;;14.70;99.90;;;;;;7384137;19;20218;-73
2023/04/29 00:51:01;;;;;;;1.38;1.27;;;14.50;99.90;;;;;;7385034;19;20603;-73
2023/04/29 00:53:29;;;;;;;2.33;1.05;;;14.40;99.90;;;;;;7383059;19;20139;-73
2023/04/29 00:55:55;;;;;;;1.35;1.20;;;14.40;99.90;;;;;;7380595;19;20160;-73
2023/04/29 00:58:22;;;;;;;2.22;1.35;;;14.20;99.90;;;;;;7385707;19;20150;-72
2023/04/29 01:00:48;;;;;;;1.67;1.00;;;14.20;99.90;;;;;;7386724;19;20556;-81
2023/04/29 01:03:14;;;;;;;2.80;1.30;;;14.20;99.90;;;;;;7386667;19;20130;-80
2023/04/29 01:05:40;;;;;;;1.50;1.20;;;14.20;99.90;;;;;;7389352;19;20122;-81
2023/04/29 01:08:48;;;;;;;1.20;1.10;;;14.10;99.90;;;;;;7391314;19;20138;-81
2023/04/29 01:11:22;;;;;;;2.30;1.55;;;14.30;99.90;;;;;;7389185;19;20151;-80
2023/04/29 01:13:57;;;;;;;1.33;1.20;;;14.30;99.90;;;;;;7390932;19;20154;-80
2023/04/29 01:16:30;;;;;;;1.85;1.20;;;14.30;99.90;;;;;;7391095;19;21356;-80
2023/04/29 01:19:04;;;;;;;1.45;1.20;;;14.30;99.90;;;;;;7391994;19;20219;-80
2023/04/29 01:21:30;;;;;;;2.50;1.30;;;14.30;99.90;;;;;;7394453;19;20134;-80
2023/04/29 01:23:57;;;;;;;1.30;1.20;;;14.30;99.90;;;;;;7390590;19;20194;-80
2023/04/29 01:26:26;;;;;;;2.25;1.20;;;14.30;99.90;;;;;;7393761;19;20131;-80
2023/04/29 01:28:54;;;;;;;1.63;1.05;;;14.30;99.90;;;;;;7392749;19;20142;-81
2023/04/29 01:31:45;;;;;;;2.13;1.40;;;14.30;99.90;;;;;;7391672;19;20623;-80
2023/04/29 01:34:29;;;;;;;1.60;1.10;;;14.20;99.90;;;;;;7392680;19;20143;-81
2023/04/29 01:37:21;;;;;;;2.33;1.30;;;14.20;99.90;;;;;;7391121;19;20143;-80
2023/04/29 01:39:53;;;;;;;3.88;1.33;;;14.30;99.90;;;;;;7391102;19;20229;-80
2023/04/29 01:42:25;;;;;;;2.55;1.08;;;14.30;99.90;;;;;;7392203;19;20639;-80
2023/04/29 01:44:55;;;;;;;1.38;0.98;;;14.30;99.90;;;;;;7387838;19;20142;-80
2023/04/29 01:47:21;;;;;;;1.33;1.08;;;14.20;99.90;;;;;;7394586;19;20131;-79
2023/04/29 01:49:48;;;;;;;1.58;0.90;;;14.30;99.90;;;;;;7393419;19;20134;-81
2023/04/29 01:52:14;;;;;;;1.10;0.90;;;14.30;99.90;;;;;;7391336;19;20424;-81
2023/04/29 01:54:40;;;;;;;3.13;1.10;;;14.20;99.90;;;;;;7391147;19;20143;-80
2023/04/29 01:57:05;;;;;;;1.38;1.13;;;14.30;99.90;;;;;;7393930;19;20139;-80
2023/04/29 01:59:31;;;;;;;1.30;1.20;;;14.30;99.90;;;;;;7388153;19;20123;-80
2023/04/29 02:01:57;;;;;;;1.70;1.20;;;14.20;99.90;;;;;;7390712;19;20182;-80
2023/04/29 02:04:27;;;;;;;2.70;1.00;;;14.20;99.90;;;;;;7391436;19;20131;-79
2023/04/29 02:06:53;;;;;;;2.38;1.10;;;14.10;99.90;;;;;;7391291;19;20137;-80
2023/04/29 02:09:19;;;;;;;1.20;1.10;;;14.20;99.90;;;;;;7395253;19;20131;-81
2023/04/29 02:11:44;;;;;;;1.10;1.00;;;14.00;99.90;;;;;;7391842;19;20492;-80
2023/04/29 02:14:11;;;;;;;1.20;1.10;;;14.20;99.90;;;;;;7389239;19;20134;-80
2023/04/29 02:16:37;;;;;;;1.10;0.93;;;14.10;99.90;;;;;;7387304;19;20155;-80
2023/04/29 02:19:03;;;;;;;1.52;1.17;;;14.20;99.90;;;;;;7391219;19;20511;-80
2023/04/29 02:21:29;;;;;;;1.23;1.13;;;14.20;99.90;;;;;;7390194;19;20150;-80
2023/04/29 02:23:55;;;;;;;1.23;0.88;;;14.10;99.90;;;;;;7389037;19;20146;-81
2023/04/29 02:26:20;;;;;;;2.78;1.02;;;14.00;99.90;;;;;;7392766;19;20140;-81
2023/04/29 02:28:46;;;;;;;1.33;1.00;;;14.00;99.90;;;;;;7389932;19;20490;-80
2023/04/29 02:31:12;;;;;;;1.50;1.23;;;14.00;99.90;;;;;;7389913;19;20607;-80
2023/04/29 02:33:40;;;;;;;2.33;0.98;;;14.00;99.90;;;;;;7390764;19;20139;-80
2023/04/29 02:36:06;;;;;;;1.60;1.05;;;14.10;99.90;;;;;;7389611;19;20177;-80
2023/04/29 02:38:32;;;;;;;1.17;1.05;;;14.20;99.90;;;;;;7392263;19;20158;-80
2023/04/29 02:40:58;;;;;;;2.20;1.10;;;14.10;99.90;;;;;;7389910;19;20591;-79
2023/04/29 02:43:24;;;;;;;1.10;1.00;;;14.00;99.90;;;;;;7390592;19;20158;-80
2023/04/29 02:45:49;;;;;;;2.25;1.15;;;14.00;99.90;;;;;;7389467;19;20246;-80
2023/04/29 02:48:15;;;;;;;1.83;1.20;;;14.00;99.90;;;;;;7389647;19;20236;-80
2023/04/29 02:50:41;;;;;;;2.63;1.10;;;14.20;99.90;;;;;;7386084;19;20222;-80
2023/04/29 02:53:07;;;;;;;1.25;0.90;;;14.10;99.90;;;;;;7389378;19;20636;-80
2023/04/29 02:55:33;;;;;;;1.00;0.90;;;14.00;99.90;;;;;;7388403;19;20147;-81
2023/04/29 02:57:58;;;;;;;1.58;1.02;;;14.00;99.90;;;;;;7390502;19;20152;-80
2023/04/29 03:00:24;;;;;;;4.47;1.00;;;13.90;99.90;;;;;;7389425;19;20652;-80
2023/04/29 03:02:50;;;;;;;1.27;1.17;;;14.00;99.90;;;;;;7390199;19;20202;-80
2023/04/29 03:05:15;;;;;;;1.00;0.90;;;14.10;99.90;;;;;;7387544;19;20654;-80
2023/04/29 03:07:41;;;;;;;2.20;1.10;;;14.00;99.90;;;;;;7391498;19;20210;-81
2023/04/29 03:10:08;;;;;;;1.52;0.90;;;14.00;99.90;;;;;;7391067;19;20149;-79
2023/04/29 03:12:33;;;;;;;1.58;0.98;;;14.00;99.90;;;;;;7388331;19;20486;-79
2023/04/29 03:14:59;;;;;;;1.40;1.17;;;14.00;99.90;;;;;;7390380;19;20159;-80
2023/04/29 03:17:25;;;;;;;2.35;1.00;;;14.00;99.90;;;;;;7389710;19;20186;-80
2023/04/29 03:19:53;;;;;;;1.70;1.20;;;14.00;99.90;;;;;;7389864;19;20562;-78
2023/04/29 03:22:19;;;;;;;1.23;1.10;;;14.10;99.90;;;;;;7389272;19;20170;-80
2023/04/29 03:24:45;;;;;;;1.45;1.10;;;14.10;99.90;;;;;;7388303;19;20126;-79
2023/04/29 03:27:11;;;;;;;4.38;1.45;;;14.10;99.90;;;;;;7388931;19;20210;-81
2023/04/29 03:29:36;;;;;;;2.15;1.30;;;14.30;99.90;;;;;;7387066;19;20154;-80
2023/04/29 03:32:02;;;;;;;1.45;1.30;;;14.30;99.90;;;;;;7388690;19;20131;-80
2023/04/29 03:34:28;;;;;;;3.22;1.20;;;14.30;99.90;;;;;;7390657;19;20133;-80
2023/04/29 03:36:54;;;;;;;1.30;1.20;;;14.30;99.90;;;;;;7389473;19;20166;-81
2023/04/29 03:39:20;;;;;;;5.93;2.10;;;14.40;99.90;;;;;;7389010;19;20134;-80
2023/04/29 03:41:46;;;;;;;2.63;1.48;;;14.40;99.90;;;;;;7386694;19;20911;-80
2023/04/29 03:44:12;;;;;;;3.35;1.40;;;14.40;99.90;;;;;;7385359;19;20138;-80
2023/04/29 03:46:38;;;;;;;6.97;1.77;;;14.30;99.90;;;;;;7388137;19;20606;-79
2023/04/29 03:49:04;;;;;;;6.57;2.00;;;14.30;99.90;;;;;;7388233;19;20667;-80
2023/04/29 03:51:30;;;;;;;2.35;1.70;;;14.30;99.90;;;;;;7387298;19;20168;-79
2023/04/29 03:53:56;;;;;;;3.35;1.90;;;14.30;99.90;;;;;;7386026;19;20172;-79
2023/04/29 03:56:25;;;;;;;1.55;1.20;;;14.30;99.90;;;;;;7388682;19;20141;-80
2023/04/29 03:58:52;;;;;;;1.65;1.40;;;14.20;99.90;;;;;;7386463;19;20138;-79
2023/04/29 04:01:18;;;;;;;1.73;1.42;;;14.00;99.90;;;;;;7388740;19;20131;-79
2023/04/29 04:03:44;;;;;;;2.33;1.67;;;13.90;99.90;;;;;;7386813;19;20646;-79
2023/04/29 04:06:10;;;;;;;2.15;1.70;;;14.00;99.90;;;;;;7389198;19;20127;-80
2023/04/29 04:08:36;;;;;;;1.65;1.55;;;13.90;99.90;;;;;;7385512;19;20177;-81
2023/04/29 04:11:02;;;;;;;2.20;1.55;;;13.80;99.90;;;;;;7389350;19;20163;-80
2023/04/29 04:13:31;;;;;;;2.28;1.70;;;13.90;99.90;;;;;;7387457;19;20202;-80
2023/04/29 04:15:57;;;;;;;3.00;1.65;;;14.00;99.90;;;;;;7385454;19;20146;-80
2023/04/29 04:18:23;;;;;;;1.95;1.70;;;14.00;99.90;;;;;;7387947;19;20142;-80
2023/04/29 04:20:49;;;;;;;3.55;1.55;;;14.00;99.90;;;;;;7388087;19;20209;-81
2023/04/29 04:23:15;;;;;;;2.85;1.80;;;14.00;99.90;;;;;;7386187;19;20525;-80
2023/04/29 04:25:48;;;;;;;5.25;1.73;;;14.00;99.90;;;;;;7389396;19;20476;-80
2023/04/29 04:28:14;;;;;;;1.88;1.67;;;14.00;99.90;;;;;;7388561;19;20153;-80
2023/04/29 04:30:41;;;;;;;2.65;1.70;;;13.90;99.90;;;;;;7387564;19;20503;-79
2023/04/29 04:33:08;;;;;;;2.92;1.60;;;13.90;99.90;;;;;;7384970;19;20135;-80
2023/04/29 04:35:33;;;;;;;2.95;1.65;;;13.80;99.90;;;;;;7387160;19;20619;-79
2023/04/29 04:37:59;;;;;;;2.10;1.90;;;13.80;99.90;;;;;;7390133;19;20135;-81
2023/04/29 04:40:25;;;;;;;2.22;2.00;;;13.80;99.90;;;;;;7385439;19;20139;-79
2023/04/29 04:42:50;;;;;;;3.42;1.85;;;13.70;99.90;;;;;;7386146;19;20142;-81
2023/04/29 04:45:16;;;;;;;2.08;1.67;;;13.80;99.90;;;;;;7388209;19;20148;-81
2023/04/29 04:47:42;;;;;;;3.67;2.10;;;13.70;99.90;;;;;;7385147;19;20161;-80
2023/04/29 04:50:08;;;;;;;2.00;1.80;;;13.70;99.90;;;;;;7386960;19;20151;-80
2023/04/29 04:52:34;;;;;;;3.00;2.17;;;13.70;99.90;;;;;;7381596;19;20494;-79
2023/04/29 04:55:00;;;;;;;3.75;2.50;;;13.70;99.90;;;;;;7385112;19;20134;-80
2023/04/29 04:57:26;;;;;;;3.35;1.75;;;13.60;99.90;;;;;;7387048;19;20150;-81
2023/04/29 04:59:52;;;;;;;2.58;1.95;;;13.70;99.90;;;;;;7384232;19;20127;-80
2023/04/29 05:02:17;;;;;;;4.38;2.00;;;13.60;99.90;;;;;;7385922;19;20235;-80
2023/04/29 05:04:43;;;;;;;2.92;2.00;;;13.70;99.90;;;;;;7385702;19;20533;-80
2023/04/29 05:07:09;;;;;;;2.00;1.70;;;13.70;99.90;;;;;;7385840;19;20135;-80
2023/04/29 05:09:36;;;;;;;4.05;2.22;;;13.70;99.90;;;;;;7385606;19;20607;-79
2023/04/29 05:12:02;;;;;;;3.88;1.90;;;13.70;99.90;;;;;;7385561;19;20601;-79
2023/04/29 05:14:28;;;;;;;3.45;2.03;;;13.70;99.90;;;;;;7384349;19;20194;-80
2023/04/29 05:17:00;;;;;;;3.28;1.85;;;13.70;99.90;;;;;;7387204;19;20168;-80
2023/04/29 05:19:26;;;;;;;2.95;2.00;;;13.60;99.90;;;;;;7385503;19;20147;-80
2023/04/29 05:21:52;;;;;;;4.30;1.80;;;13.60;99.90;;;;;;7386120;19;20571;-80
2023/04/29 05:24:18;;;;;;;1.60;1.45;;;13.60;99.90;;;;;;7384125;19;20487;-81
2023/04/29 05:26:43;;;;;;;4.05;1.83;;;13.60;99.90;;;;;;7386544;19;20154;-80
2023/04/29 05:29:10;;;;;;;3.20;2.00;;;13.80;99.90;;;;;;7385528;19;20135;-79
2023/04/29 05:31:36;;;;;;;4.78;4.07;;;14.00;99.90;;;;;;7384054;19;20178;-80
2023/04/29 05:34:02;;;;;;;4.55;2.45;;;14.00;99.90;;;;;;7386006;19;20155;-81
2023/04/29 05:36:27;;;;;;;4.72;2.20;;;13.90;99.90;;;;;;7384675;19;21639;-82
2023/04/29 05:38:53;;;;;;;3.05;2.20;;;14.10;99.90;;;;;;7385430;19;20162;-82
2023/04/29 05:41:23;;;;;;;2.35;2.15;;;14.30;99.90;;;;;;7384552;19;20170;-82
2023/04/29 05:43:50;;;;;;;2.35;2.15;;;14.30;99.90;;;;;;7383420;19;20135;-81
2023/04/29 05:46:16;;;;;;;2.25;2.05;;;14.50;99.90;;;;;;7384848;19;20141;-81
2023/04/29 05:48:42;;;;;;;1.95;1.75;;;14.40;99.90;;;;;;7384661;19;20187;-80
2023/04/29 05:51:08;;;;;;;2.42;2.22;;;14.70;99.90;;;;;;7387001;19;20154;-80
2023/04/29 05:53:35;;;;;;;2.55;2.03;;;14.70;99.90;;;;;;7391608;19;20591;-80
2023/04/29 05:56:07;;;;;;;4.20;2.67;;;14.90;99.90;;;;;;7388346;19;20202;-81
2023/04/29 05:58:36;;;;;;;2.90;2.60;;;15.00;99.90;;;;;;7393407;19;20456;-81
2023/04/29 06:01:02;;;;;;;2.85;2.33;;;14.90;99.90;;;;;;7392092;19;20155;-81
2023/04/29 06:03:28;;;;;;;2.30;2.10;;;15.00;99.90;;;;;;7390045;19;20135;-80
2023/04/29 06:05:54;;;;;;;2.50;2.03;;;14.90;99.90;;;;;;7391137;19;20141;-80
2023/04/29 06:08:20;;;;;;;4.07;2.30;;;15.00;99.90;;;;;;7391513;19;20206;-80
2023/04/29 06:10:46;;;;;;;2.97;2.17;;;14.90;99.90;;;;;;7391366;19;20156;-81
2023/04/29 06:13:12;;;;;;;3.53;2.05;;;15.00;99.90;;;;;;7390625;19;20149;-79
2023/04/29 06:15:38;;;;;;;3.03;2.00;;;15.10;99.90;;;;;;7390193;19;20142;-81
2023/04/29 06:18:04;;;;;;;2.25;2.00;;;15.10;99.90;;;;;;7392056;19;20135;-80
2023/04/29 06:20:30;;;;;;;3.00;2.00;;;15.10;99.90;;;;;;7391206;19;20131;-80
2023/04/29 06:22:56;;;;;;;3.85;1.92;;;15.20;99.90;;;;;;7388039;19;20154;-81
2023/04/29 06:25:21;;;;;;;4.22;3.20;;;15.20;99.90;;;;;;7384416;19;20145;-82
2023/04/29 06:27:48;;;;;;;2.20;2.00;;;15.20;99.90;;;;;;7388741;19;20169;-82
2023/04/29 06:30:13;;;;;;;2.47;2.03;;;15.20;99.90;;;;;;7389636;19;20582;-81
2023/04/29 06:32:39;;;;;;;2.53;2.15;;;15.20;99.90;;;;;;7388939;19;20146;-81
2023/04/29 06:35:06;;;;;;;2.35;2.15;;;15.30;99.90;;;;;;7390181;19;20126;-80
2023/04/29 06:37:32;;;;;;;2.40;2.00;;;15.40;99.90;;;;;;7390284;19;20169;-81
2023/04/29 06:39:58;;;;;;;2.95;1.75;;;16.60;99.90;;;;;;7387854;19;20153;-81
2023/04/29 06:42:23;;;;;;;2.10;1.80;;;18.10;99.90;;;;;;7388179;19;20186;-80
2023/04/29 06:44:49;;;;;;;1.92;1.80;;;18.30;99.90;;;;;;7391466;19;20139;-82
2023/04/29 06:47:15;;;;;;;1.98;1.65;;;18.70;99.90;;;;;;7392474;19;20143;-80
2023/04/29 06:49:42;;;;;;;2.10;1.88;;;18.60;99.90;;;;;;7389760;19;20165;-80
2023/04/29 06:52:08;;;;;;;2.25;1.88;;;18.70;99.90;;;;;;7390011;19;20142;-80
2023/04/29 06:54:34;;;;;;;3.38;1.90;;;18.00;99.90;;;;;;7389263;19;20188;-80
2023/04/29 06:57:01;;;;;;;1.90;1.70;;;18.90;99.90;;;;;;7390006;19;20146;-81
2023/04/29 06:59:26;;;;;;;1.75;1.60;;;20.40;99.90;;;;;;7390570;19;20183;-78
2023/04/29 07:01:52;;;;;;;3.72;1.60;;;20.30;99.90;;;;;;7387488;19;20139;-79
2023/04/29 07:04:18;;;;;;;2.03;1.55;;;19.70;99.90;;;;;;7387752;19;20448;-80
2023/04/29 07:06:45;;;;;;;1.33;1.23;;;19.00;99.90;;;;;;7388410;19;20146;-80
2023/04/29 07:09:14;;;;;;;2.22;1.40;;;18.20;99.90;;;;;;7390286;19;20135;-80
2023/04/29 07:11:40;;;;;;;1.73;1.20;;;17.60;99.90;;;;;;7388144;19;20149;-79
2023/04/29 07:14:06;;;;;;;1.85;1.40;;;17.50;99.90;;;;;;7390787;19;20221;-80
2023/04/29 07:16:32;;;;;;;1.63;1.48;;;17.00;99.90;;;;;;7388933;19;20147;-79
2023/04/29 07:18:58;;;;;;;1.23;1.08;;;16.70;99.90;;;;;;7387929;19;20126;-80
2023/04/29 07:21:24;;;;;;;1.35;1.25;;;16.50;99.90;;;;;;7387944;19;20150;-81
2023/04/29 07:23:50;;;;;;;1.95;1.38;;;16.30;99.90;;;;;;7390181;19;20396;-79
2023/04/29 07:26:16;;;;;;;2.30;1.50;;;16.10;99.90;;;;;;7388910;19;20152;-80
2023/04/29 07:28:44;;;;;;;2.75;1.42;;;15.90;99.90;;;;;;7387824;19;20147;-80
2023/04/29 07:31:13;;;;;;;2.67;1.85;;;15.80;99.90;;;;;;7391242;19;20150;-80
2023/04/29 07:33:39;;;;;;;1.92;1.73;;;15.70;99.90;;;;;;7388206;19;20605;-82
2023/04/29 07:36:06;;;;;;;2.97;1.90;;;15.60;99.90;;;;;;7383855;19;20127;-81
2023/04/29 07:38:32;;;;;;;2.20;1.30;;;15.60;99.90;;;;;;7385840;19;20186;-82
2023/04/29 07:40:59;;;;;;;2.10;1.50;;;15.60;99.90;;;;;;7386085;19;20222;-82
2023/04/29 07:43:24;;;;;;;1.20;1.10;;;15.80;99.90;;;;;;7383734;19;20501;-81
2023/04/29 07:45:51;;;;;;;1.45;1.35;;;15.90;99.90;;;;;;7386057;19;20153;-82
2023/04/29 07:48:16;;;;;;;2.03;1.20;;;15.90;99.90;;;;;;7388367;19;20154;-81
2023/04/29 07:50:43;;;;;;;3.25;1.38;;;15.90;99.90;;;;;;7377962;19;20160;-83
2023/04/29 07:53:09;;;;;;;3.35;1.30;;;15.80;99.90;;;;;;7389238;19;20645;-83
2023/04/29 07:55:36;;;;;;;1.20;1.10;;;15.90;99.90;;;;;;7386342;19;20234;-82
2023/04/29 07:58:02;;;;;;;1.50;1.40;;;15.80;99.90;;;;;;7389431;19;20138;-83
2023/04/29 08:00:28;;;;;;;1.20;1.10;;;15.90;99.90;;;;;;7387776;19;20153;-82
2023/04/29 08:02:55;;;;;;;4.72;1.38;;;16.00;99.90;;;;;;7389745;19;20130;-81
2023/04/29 08:05:21;;;;;;;1.40;1.30;;;16.00;99.90;;;;;;7387534;19;20529;-82
2023/04/29 08:07:48;;;;;;;2.10;1.48;;;16.00;99.90;;;;;;7387563;19;20135;-81
2023/04/29 08:10:18;;;;;;;1.30;1.20;;;16.00;99.90;;;;;;7385577;19;20147;-81
2023/04/29 08:12:48;;;;;;;1.60;1.10;;;16.00;99.90;;;;;;7387627;19;20127;-80
2023/04/29 08:15:14;;;;;;;1.92;1.70;;;16.10;99.90;;;;;;7388826;19;20630;-80
2023/04/29 08:17:40;;;;;;;1.58;1.48;;;16.00;99.90;;;;;;7382193;19;20150;-81
2023/04/29 08:20:07;;;;;;;1.42;1.33;;;16.10;99.90;;;;;;7384075;19;20127;-81
2023/04/29 08:22:33;;;;;;;2.05;1.20;;;16.10;99.90;;;;;;7378219;19;20127;-81
2023/04/29 08:24:59;;;;;;;1.30;1.20;;;16.10;99.90;;;;;;7387365;19;20533;-80
2023/04/29 08:27:25;;;;;;;2.75;1.50;;;16.30;99.90;;;;;;7393981;19;20143;-80
2023/04/29 08:29:51;;;;;;;1.48;1.33;;;16.40;99.90;;;;;;7384156;19;20521;-80
2023/04/29 08:32:17;;;;;;;1.33;1.23;;;16.40;99.90;;;;;;7383871;19;20134;-79
2023/04/29 08:34:43;;;;;;;2.80;2.05;;;16.40;99.90;;;;;;7391267;19;20869;-79
2023/04/29 08:37:10;;;;;;;1.60;1.50;;;16.50;99.90;;;;;;7388315;19;20173;-79
2023/04/29 08:39:36;;;;;;;1.80;1.27;;;16.30;99.90;;;;;;7383581;19;20802;-81
2023/04/29 08:42:09;;;;;;;1.98;1.40;;;16.20;99.90;;;;;;7383841;19;20182;-79
2023/04/29 08:44:35;;;;;;;2.00;1.50;;;16.10;99.90;;;;;;7386929;19;20483;-80
2023/04/29 08:47:02;;;;;;;3.15;2.20;;;16.10;99.90;;;;;;7386084;19;20165;-80
2023/04/29 08:49:28;;;;;;;2.95;1.90;;;16.10;99.90;;;;;;7386440;19;20182;-80
2023/04/29 08:51:55;;;;;;;1.90;1.70;;;16.00;99.90;;;;;;7382025;19;20153;-81
2023/04/29 08:54:21;;;;;;;1.90;1.45;;;16.00;99.90;;;;;;7382374;19;20135;-80
2023/04/29 08:56:47;;;;;;;2.58;1.85;;;16.00;99.90;;;;;;7385977;19;20146;-81
2023/04/29 08:59:15;;;;;;;4.25;2.45;;;15.90;99.90;;;;;;7385176;19;20148;-81
2023/04/29 09:01:43;;;;;;;5.38;1.98;;;15.90;99.90;;;;;;7385615;19;20889;-81
2023/04/29 09:04:15;;;;;;;2.88;2.20;;;15.90;99.90;;;;;;7384453;19;20157;-79
2023/04/29 09:06:40;;;;;;;3.92;2.33;;;15.80;99.90;;;;;;7386127;19;20134;-80
2023/04/29 09:09:07;;;;;;;3.25;1.98;;;15.90;99.90;;;;;;7382080;19;20154;-80
2023/04/29 09:11:34;;;;;;;1.95;1.70;;;15.90;99.90;;;;;;7377688;19;20161;-79
2023/04/29 09:14:01;;;;;;;1.88;1.70;;;16.00;99.90;;;;;;7379712;19;20143;-78
2023/04/29 09:16:27;;;;;;;6.68;2.10;;;16.10;99.90;;;;;;7379627;19;20134;-81
2023/04/29 09:18:54;;;;;;;2.92;1.55;;;16.20;99.90;;;;;;7383680;19;20257;-80
2023/04/29 09:21:21;;;;;;;3.78;2.25;;;16.20;99.90;;;;;;7382091;19;20490;-79
2023/04/29 09:23:49;;;;;;;1.80;1.70;;;16.10;99.90;;;;;;7387157;19;20167;-81
2023/04/29 09:26:15;;;;;;;2.05;1.60;;;16.00;99.90;;;;;;7384410;19;20218;-81
2023/04/29 09:28:43;;;;;;;2.00;1.80;;;15.90;99.90;;;;;;7394208;19;20130;-81
2023/04/29 09:31:10;;;;;;;4.05;1.85;;;16.20;99.90;;;;;;7390979;19;20206;-81
2023/04/29 09:33:54;;;;;;;3.35;2.17;;;16.10;99.90;;;;;;7391779;19;20155;-80
2023/04/29 09:36:58;;;;;;;4.00;2.13;;;16.20;99.90;;;;;;7385495;19;20139;-78
2023/04/29 09:39:25;;;;;;;2.00;1.80;;;16.10;99.90;;;;;;7389527;19;20162;-80
2023/04/29 09:41:53;;;;;;;2.03;1.73;;;16.30;99.90;;;;;;7391219;19;20641;-81
2023/04/29 09:44:23;;;;;;;3.67;2.65;;;16.50;99.90;;;;;;7391784;19;20198;-81
2023/04/29 09:47:03;;;;;;;2.80;1.90;;;16.70;99.90;;;;;;7391058;19;20150;-81
2023/04/29 09:49:39;;;;;;;2.53;1.83;;;16.60;99.90;;;;;;7383072;19;20186;-80
2023/04/29 09:52:10;;;;;;;5.28;3.78;;;16.60;99.90;;;;;;7388947;19;20145;-79
2023/04/29 09:54:37;;;;;;;2.10;1.90;;;16.60;99.90;;;;;;7389857;19;20214;-81
2023/04/29 09:57:07;;;;;;;2.60;2.03;;;16.70;99.90;;;;;;7389327;19;20209;-80
2023/04/29 09:59:38;;;;;;;2.70;1.80;;;16.80;99.90;;;;;;7389554;19;20227;-79
2023/04/29 10:02:14;;;;;;;3.78;2.15;;;16.70;99.90;;;;;;7385500;19;20144;-80
2023/04/29 10:04:41;;;;;;;2.75;2.03;;;16.50;99.90;;;;;;7389215;19;20170;-80
2023/04/29 10:07:08;;;;;;;3.15;1.90;;;16.50;99.90;;;;;;7390423;19;20150;-80
2023/04/29 10:09:36;;;;;;;2.97;1.70;;;16.50;99.90;;;;;;7390371;19;20138;-80
2023/04/29 10:12:06;;;;;;;3.22;1.90;;;16.80;99.90;;;;;;7392381;19;20626;-80
2023/04/29 10:14:42;;;;;;;2.90;1.63;;;17.20;99.90;;;;;;7385654;19;20161;-79
2023/04/29 10:17:15;;;;;;;3.08;1.70;;;17.20;99.90;;;;;;7389934;19;20701;-79
2023/04/29 10:19:53;;;;;;;3.13;1.70;;;17.10;99.90;;;;;;7387729;19;20610;-80
2023/04/29 10:22:28;;;;;;;1.85;1.48;;;17.10;99.90;;;;;;7395416;19;20172;-80
2023/04/29 10:24:56;;;;;;;1.83;1.63;;;16.90;99.90;;;;;;7389237;19;20185;-80
2023/04/29 10:27:23;;;;;;;3.08;1.58;;;16.80;99.90;;;;;;7363922;19;20158;-79
2023/04/29 10:29:50;;;;;;;1.65;1.55;;;16.60;99.90;;;;;;7389694;19;20146;-79
2023/04/29 10:32:17;;;;;;;1.80;1.70;;;16.60;99.90;;;;;;7391190;19;20147;-79
2023/04/29 10:34:43;;;;;;;1.73;1.63;;;16.60;99.90;;;;;;7386568;19;20146;-79
2023/04/29 10:37:10;;;;;;;3.30;2.10;;;16.70;99.90;;;;;;7389321;19;20150;-80
2023/04/29 10:39:42;;;;;;;1.88;1.58;;;17.10;99.90;;;;;;7389589;19;20154;-80
2023/04/29 10:42:36;;;;;;;3.00;1.92;;;17.30;99.90;;;;;;7386697;19;20214;-80
2023/04/29 10:45:21;;;;;;;2.50;2.05;;;17.40;99.90;;;;;;7391684;19;20142;-79
2023/04/29 10:48:10;;;;;;;2.88;1.88;;;17.30;99.90;;;;;;7387343;19;20138;-80
2023/04/29 10:50:58;;;;;;;3.33;2.20;;;17.00;99.90;;;;;;7390226;19;20139;-78
2023/04/29 10:53:23;;;;;;;3.35;1.92;;;16.90;99.90;;;;;;7381775;19;20150;-79
2023/04/29 10:55:57;;;;;;;2.95;2.03;;;16.70;99.90;;;;;;7389618;19;20146;-79
2023/04/29 10:58:45;;;;;;;3.63;2.08;;;16.70;99.90;;;;;;7389932;19;20153;-78
2023/04/29 11:01:16;;;;;;;3.53;2.15;;;16.90;99.90;;;;;;7388570;19;20146;-77
2023/04/29 11:03:54;;;;;;;2.78;2.08;;;16.90;99.90;;;;;;7391028;19;20138;-79
2023/04/29 11:06:23;;;;;;;4.18;2.40;;;16.90;99.90;;;;;;7388470;19;20165;-78
2023/04/29 11:09:03;;;;;;;3.10;2.15;;;17.00;99.90;;;;;;7390726;19;20151;-78
2023/04/29 11:11:57;;;;;;;3.40;1.60;;;16.90;99.90;;;;;;7389871;19;20134;-78
2023/04/29 11:14:29;;;;;;;2.80;1.55;;;16.90;99.90;;;;;;7389185;19;20146;-80
2023/04/29 11:17:01;;;;;;;1.45;1.35;;;17.00;99.90;;;;;;7389030;19;20131;-80
2023/04/29 11:19:32;;;;;;;2.80;1.30;;;17.20;99.90;;;;;;7389475;19;20623;-80
2023/04/29 11:22:17;;;;;;;2.30;1.45;;;17.40;99.90;;;;;;7390171;19;20154;-80
2023/04/29 11:24:52;;;;;;;2.53;1.60;;;17.60;99.90;;;;;;7389375;19;20126;-81
2023/04/29 11:27:19;;;;;;;2.55;2.03;;;17.40;99.90;;;;;;7389616;19;20189;-79
2023/04/29 11:29:48;;;;;;;2.63;1.55;;;17.30;99.90;;;;;;7386941;19;20146;-80
2023/04/29 11:32:14;;;;;;;2.80;2.15;;;17.20;99.90;;;;;;7387131;19;20474;-83
2023/04/29 11:34:40;;;;;;;3.50;1.63;;;17.20;99.90;;;;;;7389393;19;20123;-82
2023/04/29 11:37:05;;;;;;;1.58;1.20;;;17.30;99.90;;;;;;7388056;19;20190;-78
2023/04/29 11:39:37;;;;;;;2.58;1.60;;;17.40;99.90;;;;;;7381266;19;20162;-78
2023/04/29 11:42:04;;;;;;;2.17;1.33;;;17.50;99.90;;;;;;7375516;19;20154;-81
2023/04/29 11:44:33;;;;;;;2.47;1.55;;;17.50;99.90;;;;;;7382691;19;20126;-83
2023/04/29 11:47:07;;;;;;;3.17;1.60;;;17.50;99.90;;;;;;7389754;19;20475;-83
2023/04/29 11:49:34;;;;;;;2.60;1.85;;;17.50;99.90;;;;;;7388179;19;20130;-82
2023/04/29 11:52:00;;;;;;;2.35;1.70;;;17.50;99.90;;;;;;7389341;19;20238;-81
2023/04/29 11:54:27;;;;;;;2.13;1.83;;;17.50;99.90;;;;;;7383128;19;20457;-81
2023/04/29 11:56:54;;;;;;;4.07;2.17;;;17.50;99.90;;;;;;7376007;19;20154;-83
2023/04/29 11:59:21;;;;;;;1.83;1.70;;;17.60;99.90;;;;;;7377177;19;20130;-82
2023/04/29 12:01:48;;;;;;;4.68;2.45;;;17.70;99.90;;;;;;7377795;19;20153;-82
2023/04/29 12:04:13;;;;;;;3.72;2.00;;;17.80;99.90;;;;;;7370755;19;20146;-80
2023/04/29 12:06:40;;;;;;;2.50;2.30;;;17.90;99.90;;;;;;7374903;19;21448;-81
2023/04/29 12:09:07;;;;;;;5.22;2.80;;;17.90;99.90;;;;;;7371352;19;20607;-83
2023/04/29 12:11:36;;;;;;;5.55;2.50;;;17.90;99.90;;;;;;7373055;19;20157;-82
2023/04/29 12:14:05;;;;;;;3.78;2.97;;;18.00;99.90;;;;;;7374547;19;20153;-82
2023/04/29 12:16:34;;;;;;;3.10;2.30;;;17.90;99.90;;;;;;7370793;19;20925;-83
2023/04/29 12:19:00;;;;;;;3.08;2.45;;;17.80;99.90;;;;;;7376211;19;20146;-81
2023/04/29 12:21:26;;;;;;;3.03;2.05;;;17.90;99.90;;;;;;7376245;19;20178;-85
2023/04/29 12:23:52;;;;;;;6.47;2.67;;;18.00;99.90;;;;;;7377274;19;20838;-82
2023/04/29 12:26:19;;;;;;;3.20;2.17;;;17.90;99.90;;;;;;7375324;19;20237;-82
2023/04/29 12:28:49;;;;;;;3.40;2.53;;;17.90;99.90;;;;;;7376207;19;20146;-82
2023/04/29 12:31:15;;;;;;;4.07;2.22;;;18.00;99.90;;;;;;7374467;19;20134;-81
2023/04/29 12:33:45;;;;;;;3.20;2.75;;;17.90;99.90;;;;;;7373825;19;20154;-82
2023/04/29 12:36:18;;;;;;;2.63;2.42;;;17.80;99.90;;;;;;7373967;19;20172;-83
2023/04/29 12:38:44;;;;;;;3.42;2.90;;;17.80;99.90;;;;;;7375044;19;20153;-83
2023/04/29 12:41:13;;;;;;;5.20;3.10;;;17.60;99.90;;;;;;7373640;19;20198;-83
2023/04/29 12:43:39;;;;;;;4.38;2.80;;;17.50;99.90;;;;;;7376153;19;20613;-83
2023/04/29 12:46:06;;;;;;;3.80;2.95;;;17.40;99.90;;;;;;7375050;19;20161;-81
2023/04/29 12:48:34;;;;;;;3.17;2.67;;;17.50;99.90;;;;;;7374946;19;20147;-82
2023/04/29 12:51:01;;;;;;;4.45;3.00;;;17.60;99.90;;;;;;7373862;19;21145;-82
2023/04/29 12:53:29;;;;;;;3.88;2.80;;;17.90;99.90;;;;;;7378804;19;20220;-83